sensor_id;sensor_type;location;lat;lon;timestamp;P1;durP1;ratioP1;P2;durP2;ratioP2
79631;SDS011;69108;41.120;16.874;2023-06-05T15:27:17;19.98;;;11.40;;
79631;SDS011;69108;41.120;16.874;2023-06-05T15:29:44;17.40;;;10.10;;
79631;SDS011;69108;41.120;16.874;2023-06-05T15:32:11;15.43;;;9.40;;
79631;SDS011;69108;41.120;16.874;2023-06-05T15:34:38;15.23;;;9.93;;
79631;SDS011;69108;41.120;16.874;2023-06-05T15:37:05;17.42;;;10.80;;
79631;SDS011;69108;41.120;16.874;2023-06-05T15:39:32;15.85;;;8.88;;
79631;SDS011;69108;41.120;16.874;2023-06-05T15:41:59;15.68;;;9.38;;
79631;SDS011;69108;41.120;16.874;2023-06-05T15:44:27;18.98;;;9.57;;
79631;SDS011;69108;41.120;16.874;2023-06-05T15:46:54;16.55;;;9.63;;
79631;SDS011;69108;41.120;16.874;2023-06-05T15:55:33;16.33;;;9.45;;
79631;SDS011;69108;41.120;16.874;2023-06-05T15:58:04;12.27;;;8.32;;
79631;SDS011;69108;41.120;16.874;2023-06-05T16:00:31;12.57;;;7.97;;
79631;SDS011;69108;41.120;16.874;2023-06-05T16:02:58;10.60;;;8.38;;
79631;SDS011;69108;41.120;16.874;2023-06-05T16:05:25;13.45;;;8.00;;
79631;SDS011;69108;41.120;16.874;2023-06-05T16:07:55;13.55;;;9.07;;
79631;SDS011;69108;41.120;16.874;2023-06-05T16:12:53;15.40;;;9.57;;
79631;SDS011;69108;41.120;16.874;2023-06-05T16:15:21;13.98;;;8.23;;
79631;SDS011;69108;41.120;16.874;2023-06-05T16:17:48;15.13;;;8.75;;
79631;SDS011;69108;41.120;16.874;2023-06-05T16:20:16;12.60;;;8.27;;
79631;SDS011;69108;41.120;16.874;2023-06-05T16:22:43;16.65;;;8.82;;
79631;SDS011;69108;41.120;16.874;2023-06-05T16:25:10;12.68;;;8.73;;
79631;SDS011;69108;41.120;16.874;2023-06-05T16:27:37;14.82;;;9.68;;
79631;SDS011;69108;41.120;16.874;2023-06-05T16:32:34;16.40;;;9.80;;
79631;SDS011;69108;41.120;16.874;2023-06-05T16:35:01;13.55;;;9.40;;
79631;SDS011;69108;41.120;16.874;2023-06-05T16:37:29;14.48;;;10.05;;
79631;SDS011;69108;41.120;16.874;2023-06-05T16:39:56;15.98;;;10.57;;
79631;SDS011;69108;41.120;16.874;2023-06-05T16:42:24;15.13;;;9.98;;
79631;SDS011;69108;41.120;16.874;2023-06-05T16:44:53;17.23;;;10.65;;
79631;SDS011;69108;41.120;16.874;2023-06-05T16:47:24;13.77;;;10.50;;
79631;SDS011;69108;41.120;16.874;2023-06-05T16:49:51;18.05;;;10.73;;
79631;SDS011;69108;41.120;16.874;2023-06-05T16:52:18;19.95;;;13.57;;
79631;SDS011;69108;41.120;16.874;2023-06-05T16:54:49;26.00;;;14.15;;
79631;SDS011;69108;41.120;16.874;2023-06-05T16:57:16;16.58;;;11.50;;
79631;SDS011;69108;41.120;16.874;2023-06-05T16:59:45;18.75;;;11.25;;
79631;SDS011;69108;41.120;16.874;2023-06-05T17:04:42;18.02;;;11.15;;
79631;SDS011;69108;41.120;16.874;2023-06-05T17:07:12;17.30;;;11.85;;
79631;SDS011;69108;41.120;16.874;2023-06-05T17:09:48;16.60;;;11.63;;
79631;SDS011;69108;41.120;16.874;2023-06-05T17:12:16;18.77;;;11.43;;
79631;SDS011;69108;41.120;16.874;2023-06-05T17:14:44;20.15;;;13.02;;
79631;SDS011;69108;41.120;16.874;2023-06-05T17:17:11;19.60;;;12.40;;
79631;SDS011;69108;41.120;16.874;2023-06-05T17:19:40;17.15;;;11.80;;
79631;SDS011;69108;41.120;16.874;2023-06-05T17:22:08;22.95;;;12.63;;
79631;SDS011;69108;41.120;16.874;2023-06-05T17:28:11;20.58;;;12.45;;
79631;SDS011;69108;41.120;16.874;2023-06-05T17:42:29;14.38;;;10.10;;
79631;SDS011;69108;41.120;16.874;2023-06-05T17:45:02;16.42;;;10.25;;
79631;SDS011;69108;41.120;16.874;2023-06-05T17:47:30;16.10;;;10.63;;
79631;SDS011;69108;41.120;16.874;2023-06-05T17:55:38;13.23;;;9.65;;
79631;SDS011;69108;41.120;16.874;2023-06-05T17:58:40;18.45;;;9.90;;
79631;SDS011;69108;41.120;16.874;2023-06-05T18:01:16;17.55;;;10.10;;
79631;SDS011;69108;41.120;16.874;2023-06-05T18:03:49;19.52;;;11.05;;
79631;SDS011;69108;41.120;16.874;2023-06-05T18:06:20;15.60;;;10.32;;
79631;SDS011;69108;41.120;16.874;2023-06-05T18:11:15;14.40;;;9.82;;
79631;SDS011;69108;41.120;16.874;2023-06-05T18:13:42;19.08;;;11.50;;
79631;SDS011;69108;41.120;16.874;2023-06-05T18:16:09;20.98;;;11.05;;
79631;SDS011;69108;41.120;16.874;2023-06-05T18:18:36;19.20;;;11.13;;
79631;SDS011;69108;41.120;16.874;2023-06-05T18:21:03;18.75;;;10.73;;
79631;SDS011;69108;41.120;16.874;2023-06-05T18:23:36;17.73;;;11.07;;
79631;SDS011;69108;41.120;16.874;2023-06-05T18:26:07;16.42;;;10.35;;
79631;SDS011;69108;41.120;16.874;2023-06-05T18:28:35;19.23;;;10.35;;
79631;SDS011;69108;41.120;16.874;2023-06-05T18:31:01;21.95;;;10.77;;
79631;SDS011;69108;41.120;16.874;2023-06-05T18:33:29;19.50;;;10.40;;
79631;SDS011;69108;41.120;16.874;2023-06-05T18:35:58;15.43;;;10.73;;
79631;SDS011;69108;41.120;16.874;2023-06-05T18:38:25;22.77;;;11.05;;
79631;SDS011;69108;41.120;16.874;2023-06-05T18:40:52;19.15;;;10.13;;
79631;SDS011;69108;41.120;16.874;2023-06-05T18:43:22;18.58;;;10.80;;
79631;SDS011;69108;41.120;16.874;2023-06-05T18:45:49;18.50;;;10.57;;
79631;SDS011;69108;41.120;16.874;2023-06-05T18:48:18;15.07;;;10.38;;
79631;SDS011;69108;41.120;16.874;2023-06-05T18:50:46;15.90;;;10.57;;
79631;SDS011;69108;41.120;16.874;2023-06-05T18:53:13;16.08;;;9.82;;
79631;SDS011;69108;41.120;16.874;2023-06-05T18:58:08;17.40;;;11.27;;
79631;SDS011;69108;41.120;16.874;2023-06-05T19:00:36;17.10;;;10.18;;
79631;SDS011;69108;41.120;16.874;2023-06-05T19:03:03;14.57;;;9.65;;
79631;SDS011;69108;41.120;16.874;2023-06-05T19:05:31;17.55;;;11.52;;
79631;SDS011;69108;41.120;16.874;2023-06-05T19:07:58;17.20;;;11.05;;
79631;SDS011;69108;41.120;16.874;2023-06-05T19:10:27;21.92;;;12.15;;
79631;SDS011;69108;41.120;16.874;2023-06-05T19:12:55;16.35;;;10.18;;
79631;SDS011;69108;41.120;16.874;2023-06-05T19:15:25;18.17;;;11.05;;
79631;SDS011;69108;41.120;16.874;2023-06-05T19:17:55;20.52;;;12.18;;
79631;SDS011;69108;41.120;16.874;2023-06-05T19:20:25;17.20;;;10.70;;
79631;SDS011;69108;41.120;16.874;2023-06-05T19:22:52;18.88;;;10.27;;
79631;SDS011;69108;41.120;16.874;2023-06-05T19:25:20;16.75;;;10.73;;
79631;SDS011;69108;41.120;16.874;2023-06-05T19:27:47;17.10;;;10.48;;
79631;SDS011;69108;41.120;16.874;2023-06-05T19:30:15;14.80;;;9.85;;
79631;SDS011;69108;41.120;16.874;2023-06-05T19:35:41;16.48;;;9.90;;
79631;SDS011;69108;41.120;16.874;2023-06-05T19:38:08;15.52;;;9.90;;
79631;SDS011;69108;41.120;16.874;2023-06-05T19:40:35;13.75;;;9.07;;
79631;SDS011;69108;41.120;16.874;2023-06-05T19:43:02;16.35;;;10.23;;
79631;SDS011;69108;41.120;16.874;2023-06-05T19:45:29;17.02;;;9.95;;
79631;SDS011;69108;41.120;16.874;2023-06-05T19:47:56;14.57;;;8.82;;
79631;SDS011;69108;41.120;16.874;2023-06-05T19:50:27;15.02;;;9.63;;
79631;SDS011;69108;41.120;16.874;2023-06-05T19:53:00;15.15;;;9.43;;
79631;SDS011;69108;41.120;16.874;2023-06-05T19:55:28;17.63;;;9.35;;
79631;SDS011;69108;41.120;16.874;2023-06-05T19:57:55;14.88;;;9.75;;
79631;SDS011;69108;41.120;16.874;2023-06-05T20:00:22;15.98;;;9.57;;
79631;SDS011;69108;41.120;16.874;2023-06-05T20:02:52;18.02;;;9.43;;
79631;SDS011;69108;41.120;16.874;2023-06-05T20:05:20;14.95;;;9.45;;
79631;SDS011;69108;41.120;16.874;2023-06-05T20:07:54;15.00;;;9.48;;
79631;SDS011;69108;41.120;16.874;2023-06-05T20:10:22;14.55;;;9.07;;
79631;SDS011;69108;41.120;16.874;2023-06-05T20:12:49;15.00;;;9.65;;
79631;SDS011;69108;41.120;16.874;2023-06-05T20:15:19;15.23;;;9.68;;
79631;SDS011;69108;41.120;16.874;2023-06-05T20:20:13;16.83;;;9.35;;
79631;SDS011;69108;41.120;16.874;2023-06-05T20:22:41;20.08;;;10.65;;
79631;SDS011;69108;41.120;16.874;2023-06-05T20:25:11;15.98;;;9.98;;
79631;SDS011;69108;41.120;16.874;2023-06-05T20:27:43;16.85;;;11.13;;
79631;SDS011;69108;41.120;16.874;2023-06-05T20:30:13;15.10;;;10.02;;
79631;SDS011;69108;41.120;16.874;2023-06-05T20:32:41;15.48;;;10.75;;
79631;SDS011;69108;41.120;16.874;2023-06-05T20:35:08;18.05;;;10.77;;
79631;SDS011;69108;41.120;16.874;2023-06-05T20:37:37;15.77;;;10.80;;
79631;SDS011;69108;41.120;16.874;2023-06-05T20:40:04;17.83;;;10.07;;
79631;SDS011;69108;41.120;16.874;2023-06-05T20:42:36;15.75;;;10.43;;
79631;SDS011;69108;41.120;16.874;2023-06-05T20:45:04;20.35;;;11.30;;
79631;SDS011;69108;41.120;16.874;2023-06-05T20:47:36;16.55;;;10.35;;
79631;SDS011;69108;41.120;16.874;2023-06-05T20:50:04;14.13;;;9.90;;
79631;SDS011;69108;41.120;16.874;2023-06-05T20:52:33;15.35;;;10.20;;
79631;SDS011;69108;41.120;16.874;2023-06-05T20:55:00;16.20;;;10.48;;
79631;SDS011;69108;41.120;16.874;2023-06-05T20:57:27;20.77;;;10.50;;
79631;SDS011;69108;41.120;16.874;2023-06-05T21:00:07;15.18;;;10.55;;
79631;SDS011;69108;41.120;16.874;2023-06-05T21:03:17;15.43;;;10.68;;
79631;SDS011;69108;41.120;16.874;2023-06-05T21:05:45;15.77;;;10.95;;
79631;SDS011;69108;41.120;16.874;2023-06-05T21:08:12;14.90;;;10.38;;
79631;SDS011;69108;41.120;16.874;2023-06-05T21:10:42;14.70;;;10.15;;
79631;SDS011;69108;41.120;16.874;2023-06-05T21:13:12;16.15;;;10.60;;
79631;SDS011;69108;41.120;16.874;2023-06-05T21:15:51;16.23;;;11.02;;
79631;SDS011;69108;41.120;16.874;2023-06-05T21:18:18;18.65;;;11.70;;
79631;SDS011;69108;41.120;16.874;2023-06-05T21:20:47;17.23;;;11.27;;
79631;SDS011;69108;41.120;16.874;2023-06-05T21:23:15;17.50;;;10.48;;
79631;SDS011;69108;41.120;16.874;2023-06-05T21:25:43;15.43;;;10.50;;
79631;SDS011;69108;41.120;16.874;2023-06-05T21:28:12;19.02;;;10.85;;
79631;SDS011;69108;41.120;16.874;2023-06-05T21:30:40;16.17;;;10.77;;
79631;SDS011;69108;41.120;16.874;2023-06-05T21:33:09;18.42;;;10.75;;
79631;SDS011;69108;41.120;16.874;2023-06-05T21:35:35;15.98;;;10.02;;
79631;SDS011;69108;41.120;16.874;2023-06-05T21:38:04;16.02;;;11.15;;
79631;SDS011;69108;41.120;16.874;2023-06-05T21:40:31;15.45;;;10.85;;
79631;SDS011;69108;41.120;16.874;2023-06-05T21:42:58;19.52;;;12.13;;
79631;SDS011;69108;41.120;16.874;2023-06-05T21:47:52;16.95;;;10.85;;
79631;SDS011;69108;41.120;16.874;2023-06-05T21:50:21;17.58;;;10.50;;
79631;SDS011;69108;41.120;16.874;2023-06-05T21:53:02;18.45;;;11.00;;
79631;SDS011;69108;41.120;16.874;2023-06-05T21:55:54;16.67;;;11.55;;
79631;SDS011;69108;41.120;16.874;2023-06-05T21:58:39;21.35;;;10.90;;
79631;SDS011;69108;41.120;16.874;2023-06-05T22:01:09;16.48;;;10.45;;
79631;SDS011;69108;41.120;16.874;2023-06-05T22:06:44;14.88;;;10.07;;
79631;SDS011;69108;41.120;16.874;2023-06-05T22:09:16;15.73;;;11.07;;
79631;SDS011;69108;41.120;16.874;2023-06-05T22:11:57;17.70;;;11.23;;
79631;SDS011;69108;41.120;16.874;2023-06-05T22:14:31;15.73;;;10.82;;
79631;SDS011;69108;41.120;16.874;2023-06-05T22:17:08;15.77;;;10.20;;
79631;SDS011;69108;41.120;16.874;2023-06-05T22:19:44;17.10;;;9.68;;
79631;SDS011;69108;41.120;16.874;2023-06-05T22:25:13;14.45;;;9.82;;
79631;SDS011;69108;41.120;16.874;2023-06-05T22:27:50;14.75;;;9.35;;
79631;SDS011;69108;41.120;16.874;2023-06-05T22:30:26;14.82;;;9.13;;
79631;SDS011;69108;41.120;16.874;2023-06-05T22:32:57;20.40;;;9.63;;
79631;SDS011;69108;41.120;16.874;2023-06-05T22:35:26;12.65;;;8.82;;
79631;SDS011;69108;41.120;16.874;2023-06-05T22:37:54;13.05;;;8.38;;
79631;SDS011;69108;41.120;16.874;2023-06-05T22:40:25;14.35;;;9.13;;
79631;SDS011;69108;41.120;16.874;2023-06-05T22:42:53;12.02;;;8.60;;
79631;SDS011;69108;41.120;16.874;2023-06-05T22:45:21;12.65;;;8.18;;
79631;SDS011;69108;41.120;16.874;2023-06-05T22:47:48;15.18;;;8.30;;
79631;SDS011;69108;41.120;16.874;2023-06-05T22:50:17;13.13;;;7.88;;
79631;SDS011;69108;41.120;16.874;2023-06-05T22:52:45;14.55;;;7.82;;
79631;SDS011;69108;41.120;16.874;2023-06-05T22:55:13;13.85;;;8.10;;
79631;SDS011;69108;41.120;16.874;2023-06-05T22:57:40;13.90;;;7.90;;
79631;SDS011;69108;41.120;16.874;2023-06-05T23:00:07;10.82;;;6.90;;
79631;SDS011;69108;41.120;16.874;2023-06-05T23:02:36;12.93;;;7.47;;
79631;SDS011;69108;41.120;16.874;2023-06-05T23:05:03;12.07;;;7.75;;
79631;SDS011;69108;41.120;16.874;2023-06-05T23:07:35;11.05;;;7.38;;
79631;SDS011;69108;41.120;16.874;2023-06-05T23:10:04;13.40;;;7.80;;
79631;SDS011;69108;41.120;16.874;2023-06-05T23:12:33;13.40;;;7.68;;
79631;SDS011;69108;41.120;16.874;2023-06-05T23:15:02;10.23;;;7.63;;
79631;SDS011;69108;41.120;16.874;2023-06-05T23:17:29;12.85;;;7.30;;
79631;SDS011;69108;41.120;16.874;2023-06-05T23:19:57;12.35;;;7.40;;
79631;SDS011;69108;41.120;16.874;2023-06-05T23:22:24;10.70;;;7.05;;
79631;SDS011;69108;41.120;16.874;2023-06-05T23:24:51;12.15;;;7.35;;
79631;SDS011;69108;41.120;16.874;2023-06-05T23:27:18;16.30;;;7.60;;
79631;SDS011;69108;41.120;16.874;2023-06-05T23:29:48;10.40;;;6.90;;
79631;SDS011;69108;41.120;16.874;2023-06-05T23:32:15;10.25;;;7.07;;
79631;SDS011;69108;41.120;16.874;2023-06-05T23:34:43;10.98;;;6.97;;
79631;SDS011;69108;41.120;16.874;2023-06-05T23:37:11;10.80;;;7.45;;
79631;SDS011;69108;41.120;16.874;2023-06-05T23:39:38;10.30;;;6.97;;
79631;SDS011;69108;41.120;16.874;2023-06-05T23:42:05;10.43;;;7.28;;
79631;SDS011;69108;41.120;16.874;2023-06-05T23:44:34;12.15;;;7.28;;
79631;SDS011;69108;41.120;16.874;2023-06-05T23:47:03;12.45;;;6.85;;
79631;SDS011;69108;41.120;16.874;2023-06-05T23:49:31;11.13;;;7.13;;
79631;SDS011;69108;41.120;16.874;2023-06-05T23:52:01;10.00;;;6.75;;
79631;SDS011;69108;41.120;16.874;2023-06-05T23:54:39;13.10;;;7.47;;
79631;SDS011;69108;41.120;16.874;2023-06-05T23:57:07;12.10;;;7.68;;
79631;SDS011;69108;41.120;16.874;2023-06-05T23:59:34;11.57;;;7.75;;
